Time;durP1;ratioP1;P1;durP2;ratioP2;P2;SDS_P1;SDS_P2;PMS_P1;PMS_P2;Temp;Humidity;BMP_temperature;BMP_pressure;BME280_temperature;BME280_humidity;BME280_pressure;Samples;Min_cycle;Max_cycle;Signal;HPM_P1;HPM_P2
2022/04/01 00:01:56;;;;;;;;;;;1.10;99.90;;;;;;5016765;28;20079;-72
2022/04/01 00:04:23;;;;;;;;;;;1.10;99.90;;;;;;5024930;28;20365;-72
2022/04/01 00:06:49;;;;;;;;;;;1.10;99.90;;;;;;5026791;28;20400;-72
2022/04/01 00:09:16;;;;;;;;;;;1.10;99.90;;;;;;5031337;28;19925;-72
2022/04/01 00:11:42;;;;;;;;;;;1.00;99.90;;;;;;5011453;28;19933;-72
2022/04/01 00:14:09;;;;;;;;;;;1.10;99.90;;;;;;5029079;28;19932;-73
2022/04/01 00:16:36;;;;;;;;;;;1.00;99.90;;;;;;5019847;28;20332;-77
2022/04/01 00:19:03;;;;;;;;;;;1.10;99.90;;;;;;5024750;28;19925;-72
2022/04/01 00:21:29;;;;;;;;;;;1.10;99.90;;;;;;5018842;28;19932;-72
2022/04/01 00:23:56;;;;;;;;;;;1.10;99.90;;;;;;5017111;28;19929;-73
2022/04/01 00:26:22;;;;;;;;;;;1.10;99.90;;;;;;5026619;28;19933;-73
2022/04/01 00:28:49;;;;;;;;;;;1.10;99.90;;;;;;5032168;28;19925;-72
2022/04/01 00:31:15;;;;;;;;;;;1.10;99.90;;;;;;5019115;28;19926;-72
2022/04/01 00:33:42;;;;;;;;;;;1.10;99.90;;;;;;5020427;28;19925;-72
2022/04/01 00:36:08;;;;;;;;;;;1.20;99.90;;;;;;5026575;28;19926;-72
2022/04/01 00:38:35;;;;;;;;;;;1.10;99.90;;;;;;5028631;28;19925;-73
2022/04/01 00:41:02;;;;;;;;;;;1.10;99.90;;;;;;5026618;28;19925;-72
2022/04/01 00:43:29;;;;;;;;;;;1.20;99.90;;;;;;5012404;28;19925;-72
2022/04/01 00:45:55;;;;;;;;;;;1.20;99.90;;;;;;5021986;28;19936;-72
2022/04/01 00:48:22;;;;;;;;;;;1.30;99.90;;;;;;5025721;28;19925;-72
2022/04/01 00:50:49;;;;;;;;;;;1.30;99.90;;;;;;5024787;28;19925;-72
2022/04/01 00:53:16;;;;;;;;;;;1.20;99.90;;;;;;5025852;28;19936;-72
2022/04/01 00:55:42;;;;;;;;;;;1.20;99.90;;;;;;5031621;28;19925;-76
2022/04/01 00:58:09;;;;;;;;;;;1.30;99.90;;;;;;5032802;28;19925;-72
2022/04/01 01:00:36;;;;;;;;;;;1.30;99.90;;;;;;5007826;28;19925;-72
2022/04/01 01:03:03;;;;;;;;;;;1.20;99.90;;;;;;5009526;28;19932;-73
2022/04/01 01:05:30;;;;;;;;;;;1.30;99.90;;;;;;5029479;28;19933;-72
2022/04/01 01:07:57;;;;;;;;;;;1.30;99.90;;;;;;5026826;28;19925;-72
2022/04/01 01:10:23;;;;;;;;;;;1.30;99.90;;;;;;5010628;28;19925;-74
2022/04/01 01:12:51;;;;;;;;;;;1.30;99.90;;;;;;5032606;28;19932;-72
2022/04/01 01:15:18;;;;;;;;;;;1.30;99.90;;;;;;5022952;28;20364;-72
2022/04/01 01:17:44;;;;;;;;;;;1.30;99.90;;;;;;5026268;28;20388;-73
2022/04/01 01:20:15;;;;;;;;;;;1.20;99.90;;;;;;5023859;28;20033;-72
2022/04/01 01:22:41;;;;;;;;;;;1.30;99.90;;;;;;5019209;28;19932;-75
2022/04/01 01:25:08;;;;;;;;;;;1.30;99.90;;;;;;5028280;28;19993;-74
2022/04/01 01:27:34;;;;;;;;;;;1.40;99.90;;;;;;5018453;28;19926;-72
2022/04/01 01:30:02;;;;;;;;;;;1.40;99.90;;;;;;5006834;28;19926;-72
2022/04/01 01:32:29;;;;;;;;;;;1.40;99.90;;;;;;5020951;28;19932;-72
2022/04/01 01:34:56;;;;;;;;;;;1.40;99.90;;;;;;5023943;28;20035;-73
2022/04/01 01:37:23;;;;;;;;;;;1.40;99.90;;;;;;5032830;28;19925;-72
2022/04/01 01:39:49;;;;;;;;;;;1.40;99.90;;;;;;5024325;28;19925;-73
2022/04/01 01:42:16;;;;;;;;;;;1.40;99.90;;;;;;5027127;28;20389;-72
2022/04/01 01:44:42;;;;;;;;;;;1.50;99.90;;;;;;5027336;28;19929;-77
2022/04/01 01:47:09;;;;;;;;;;;1.40;99.90;;;;;;5033554;28;19932;-74
2022/04/01 01:49:35;;;;;;;;;;;1.50;99.90;;;;;;5010389;28;19925;-73
2022/04/01 01:54:49;;;;;;;;;;;1.50;99.90;;;;;;5011314;28;20023;-77
2022/04/01 01:57:16;;;;;;;;;;;1.50;99.90;;;;;;5016001;28;19925;-73
2022/04/01 01:59:42;;;;;;;;;;;1.60;99.90;;;;;;5003439;28;19977;-73
2022/04/01 02:02:09;;;;;;;;;;;1.50;99.90;;;;;;5031965;28;20035;-73
2022/04/01 02:04:35;;;;;;;;;;;1.50;99.90;;;;;;5024360;28;20016;-72
2022/04/01 02:07:02;;;;;;;;;;;1.50;99.90;;;;;;5032368;28;19936;-73
2022/04/01 02:09:28;;;;;;;;;;;1.50;99.90;;;;;;5033346;28;19926;-72
2022/04/01 02:11:55;;;;;;;;;;;1.50;99.90;;;;;;5017280;28;19925;-73
2022/04/01 02:14:21;;;;;;;;;;;1.50;99.90;;;;;;5025001;28;19936;-73
2022/04/01 02:16:48;;;;;;;;;;;1.50;99.90;;;;;;5033034;28;19932;-76
2022/04/01 02:19:20;;;;;;;;;;;1.50;99.90;;;;;;5033080;28;19925;-73
2022/04/01 02:21:47;;;;;;;;;;;1.40;99.90;;;;;;5032012;28;19925;-76
2022/04/01 02:24:14;;;;;;;;;;;1.40;99.90;;;;;;5022792;28;19984;-73
2022/04/01 02:26:40;;;;;;;;;;;1.50;99.90;;;;;;5020601;28;19931;-73
2022/04/01 02:29:08;;;;;;;;;;;1.50;99.90;;;;;;5015699;28;19944;-74
2022/04/01 02:31:35;;;;;;;;;;;1.50;99.90;;;;;;5021086;28;20292;-73
2022/04/01 02:34:01;;;;;;;;;;;1.50;99.90;;;;;;5024234;28;20447;-73
2022/04/01 02:36:28;;;;;;;;;;;1.60;99.90;;;;;;5018909;28;19933;-73
2022/04/01 02:38:54;;;;;;;;;;;1.60;99.90;;;;;;5024569;28;20362;-73
2022/04/01 02:41:21;;;;;;;;;;;1.60;99.90;;;;;;5024617;28;19932;-73
2022/04/01 02:43:48;;;;;;;;;;;1.60;99.90;;;;;;5009094;28;19929;-77
2022/04/01 02:46:14;;;;;;;;;;;1.60;99.90;;;;;;5027006;28;19987;-73
2022/04/01 02:48:41;;;;;;;;;;;1.70;99.90;;;;;;5016615;28;19925;-73
2022/04/01 02:51:08;;;;;;;;;;;1.70;99.90;;;;;;5018442;28;20373;-73
2022/04/01 02:53:34;;;;;;;;;;;1.70;99.90;;;;;;5030378;28;19925;-73
2022/04/01 02:56:01;;;;;;;;;;;1.60;99.90;;;;;;5020287;28;20360;-73
2022/04/01 02:58:28;;;;;;;;;;;1.70;99.90;;;;;;5004705;28;20356;-74
2022/04/01 03:00:55;;;;;;;;;;;1.70;99.90;;;;;;5019225;28;20001;-73
2022/04/01 03:03:22;;;;;;;;;;;1.70;99.90;;;;;;5019783;28;20000;-73
2022/04/01 03:05:48;;;;;;;;;;;1.80;99.90;;;;;;5016127;28;19936;-73
2022/04/01 03:08:15;;;;;;;;;;;1.80;99.90;;;;;;5015306;28;19926;-73
2022/04/01 03:10:43;;;;;;;;;;;1.90;99.90;;;;;;5015778;28;19926;-73
2022/04/01 03:13:10;;;;;;;;;;;1.90;99.90;;;;;;5018876;28;19926;-73
2022/04/01 03:15:38;;;;;;;;;;;1.90;99.90;;;;;;5022177;28;20332;-73
2022/04/01 03:18:05;;;;;;;;;;;1.90;99.90;;;;;;5031269;28;19972;-72
2022/04/01 03:20:33;;;;;;;;;;;1.90;99.90;;;;;;5016267;28;20357;-73
2022/04/01 03:23:00;;;;;;;;;;;1.90;99.90;;;;;;5026383;28;19924;-73
2022/04/01 03:25:28;;;;;;;;;;;1.90;99.90;;;;;;5025409;28;19932;-74
2022/04/01 03:27:55;;;;;;;;;;;1.90;99.90;;;;;;4997434;28;20377;-74
2022/04/01 03:30:21;;;;;;;;;;;1.90;99.90;;;;;;5028416;28;19925;-73
2022/04/01 03:32:48;;;;;;;;;;;1.90;99.90;;;;;;5027164;28;20297;-72
2022/04/01 03:35:15;;;;;;;;;;;1.90;99.90;;;;;;5030038;28;20443;-76
2022/04/01 03:37:41;;;;;;;;;;;1.90;99.90;;;;;;5025006;28;19925;-72
2022/04/01 03:40:08;;;;;;;;;;;2.00;99.90;;;;;;5007896;28;19991;-73
2022/04/01 03:42:35;;;;;;;;;;;2.00;99.90;;;;;;5022148;28;19968;-73
2022/04/01 03:45:03;;;;;;;;;;;1.90;99.90;;;;;;5010374;28;19933;-73
2022/04/01 03:47:30;;;;;;;;;;;2.00;99.90;;;;;;4995419;28;19980;-74
2022/04/01 03:49:57;;;;;;;;;;;1.90;99.90;;;;;;5001803;28;19925;-73
2022/04/01 03:52:23;;;;;;;;;;;1.90;99.90;;;;;;5019773;28;19929;-73
2022/04/01 03:54:50;;;;;;;;;;;1.80;99.90;;;;;;5009241;28;19925;-72
2022/04/01 03:57:16;;;;;;;;;;;1.90;99.90;;;;;;5024720;28;19925;-75
2022/04/01 03:59:44;;;;;;;;;;;1.80;99.90;;;;;;5018275;28;19930;-74
2022/04/01 04:02:12;;;;;;;;;;;1.90;99.90;;;;;;5010917;28;19925;-74
2022/04/01 04:04:38;;;;;;;;;;;2.00;99.90;;;;;;5026518;28;19925;-72
2022/04/01 04:07:05;;;;;;;;;;;2.00;99.90;;;;;;5025561;28;19925;-73
2022/04/01 04:09:32;;;;;;;;;;;2.00;99.90;;;;;;5023017;28;19979;-75
2022/04/01 04:11:59;;;;;;;;;;;2.00;99.90;;;;;;5016160;28;19925;-75
2022/04/01 04:14:27;;;;;;;;;;;2.00;99.90;;;;;;5017882;28;19925;-73
2022/04/01 04:16:53;;;;;;;;;;;2.00;99.90;;;;;;5017099;28;19935;-73
2022/04/01 04:19:20;;;;;;;;;;;2.00;99.90;;;;;;5018556;28;20016;-73
2022/04/01 04:21:47;;;;;;;;;;;2.00;99.90;;;;;;5029663;28;20287;-73
2022/04/01 04:24:13;;;;;;;;;;;2.00;99.90;;;;;;5024138;28;20024;-74
2022/04/01 04:26:40;;;;;;;;;;;2.00;99.90;;;;;;5025593;28;19925;-73
2022/04/01 04:29:07;;;;;;;;;;;2.20;99.90;;;;;;5017317;28;19933;-73
2022/04/01 04:31:33;;;;;;;;;;;2.10;99.90;;;;;;5018488;28;19929;-73
2022/04/01 04:34:00;;;;;;;;;;;2.00;99.90;;;;;;5020305;28;19925;-78
2022/04/01 04:36:26;;;;;;;;;;;2.00;99.90;;;;;;5014679;28;20392;-73
2022/04/01 04:38:53;;;;;;;;;;;2.00;99.90;;;;;;5023426;28;19932;-73
2022/04/01 04:41:20;;;;;;;;;;;2.00;99.90;;;;;;5017111;28;20005;-73
2022/04/01 04:43:47;;;;;;;;;;;1.90;99.90;;;;;;5025314;28;19925;-73
2022/04/01 04:46:13;;;;;;;;;;;1.90;99.90;;;;;;5020766;28;20432;-73
2022/04/01 04:48:40;;;;;;;;;;;1.90;99.90;;;;;;5009896;28;19929;-72
2022/04/01 04:51:06;;;;;;;;;;;1.90;99.90;;;;;;5020088;28;19932;-73
2022/04/01 04:53:34;;;;;;;;;;;2.00;99.90;;;;;;5023863;28;19976;-73
2022/04/01 04:56:01;;;;;;;;;;;2.00;99.90;;;;;;5022972;28;19925;-77
2022/04/01 04:58:27;;;;;;;;;;;2.00;99.90;;;;;;5024063;28;20393;-78
2022/04/01 05:00:54;;;;;;;;;;;2.00;99.90;;;;;;5013516;28;20305;-73
2022/04/01 05:03:20;;;;;;;;;;;2.00;99.90;;;;;;5017710;28;20377;-72
2022/04/01 05:05:47;;;;;;;;;;;2.00;99.90;;;;;;5012790;28;19932;-73
2022/04/01 05:08:14;;;;;;;;;;;2.00;99.90;;;;;;5026716;28;19932;-73
2022/04/01 05:10:41;;;;;;;;;;;1.90;99.90;;;;;;5024693;28;19929;-73
2022/04/01 05:13:08;;;;;;;;;;;1.90;99.90;;;;;;5019763;28;20718;-73
2022/04/01 05:15:35;;;;;;;;;;;2.10;99.90;;;;;;5026941;28;19927;-73
2022/04/01 05:18:02;;;;;;;;;;;2.10;99.90;;;;;;5027166;28;19929;-77
2022/04/01 05:20:28;;;;;;;;;;;2.00;99.90;;;;;;5022938;28;20356;-74
2022/04/01 05:22:55;;;;;;;;;;;2.00;99.90;;;;;;5032498;28;20304;-76
2022/04/01 05:25:22;;;;;;;;;;;2.10;99.90;;;;;;5024667;28;19925;-73
2022/04/01 05:27:48;;;;;;;;;;;2.10;99.90;;;;;;5023843;28;19979;-73
2022/04/01 05:30:16;;;;;;;;;;;2.10;99.90;;;;;;5017546;28;19925;-73
2022/04/01 05:32:43;;;;;;;;;;;2.00;99.90;;;;;;5023805;28;19932;-75
2022/04/01 05:35:10;;;;;;;;;;;2.00;99.90;;;;;;5023367;28;19960;-74
2022/04/01 05:37:37;;;;;;;;;;;2.00;99.90;;;;;;5021966;28;19934;-73
2022/04/01 05:40:05;;;;;;;;;;;2.00;99.90;;;;;;5022008;28;19930;-76
2022/04/01 05:42:32;;;;;;;;;;;2.10;99.90;;;;;;5001118;28;20004;-74
2022/04/01 05:44:58;;;;;;;;;;;2.00;99.90;;;;;;5021945;28;19925;-73
2022/04/01 05:47:25;;;;;;;;;;;2.20;99.90;;;;;;5016744;28;19940;-73
2022/04/01 05:49:51;;;;;;;;;;;2.20;99.90;;;;;;5016710;28;20393;-74
2022/04/01 05:52:18;;;;;;;;;;;2.10;99.90;;;;;;5016207;28;19925;-73
2022/04/01 05:54:45;;;;;;;;;;;2.20;99.90;;;;;;5018776;28;19929;-73
2022/04/01 05:57:11;;;;;;;;;;;2.20;99.90;;;;;;5002257;28;19940;-73
2022/04/01 05:59:38;;;;;;;;;;;2.10;99.90;;;;;;5023734;28;19925;-73
2022/04/01 06:02:04;;;;;;;;;;;2.20;99.90;;;;;;4999611;28;19925;-73
2022/04/01 06:04:32;;;;;;;;;;;2.10;99.90;;;;;;5018959;28;19972;-73
2022/04/01 06:06:58;;;;;;;;;;;2.20;99.90;;;;;;5017694;28;19932;-73
2022/04/01 06:09:25;;;;;;;;;;;2.20;99.90;;;;;;5006618;28;19925;-73
2022/04/01 06:11:52;;;;;;;;;;;2.20;99.90;;;;;;5000028;28;20385;-74
2022/04/01 06:14:19;;;;;;;;;;;2.30;99.90;;;;;;5000435;28;19925;-72
2022/04/01 06:16:45;;;;;;;;;;;2.40;99.90;;;;;;5000013;28;19982;-73
2022/04/01 06:19:12;;;;;;;;;;;2.20;99.90;;;;;;4997566;28;20012;-73
2022/04/01 06:21:39;;;;;;;;;;;2.30;99.90;;;;;;5014389;28;19929;-72
2022/04/01 06:24:05;;;;;;;;;;;2.30;99.90;;;;;;5001412;28;19929;-72
2022/04/01 06:26:32;;;;;;;;;;;2.30;99.90;;;;;;4995879;28;19933;-73
2022/04/01 06:28:58;;;;;;;;;;;2.30;99.90;;;;;;5004124;28;20364;-72
2022/04/01 06:31:25;;;;;;;;;;;2.30;99.90;;;;;;5017757;28;19932;-73
2022/04/01 06:33:51;;;;;;;;;;;2.30;99.90;;;;;;5000865;28;19931;-72
2022/04/01 06:36:18;;;;;;;;;;;2.40;99.90;;;;;;5018814;28;19926;-72
2022/04/01 06:38:45;;;;;;;;;;;2.40;99.90;;;;;;5014951;28;19932;-73
2022/04/01 06:41:11;;;;;;;;;;;2.40;99.90;;;;;;5016740;28;19926;-72
2022/04/01 06:43:38;;;;;;;;;;;2.40;99.90;;;;;;4998146;28;19947;-72
2022/04/01 06:46:05;;;;;;;;;;;2.40;99.90;;;;;;5017667;28;20008;-73
2022/04/01 06:48:32;;;;;;;;;;;2.40;99.90;;;;;;4997251;28;20904;-72
2022/04/01 06:50:59;;;;;;;;;;;2.40;99.90;;;;;;5001764;28;19931;-72
2022/04/01 06:53:26;;;;;;;;;;;2.40;99.90;;;;;;5000664;28;20266;-73
2022/04/01 06:55:53;;;;;;;;;;;2.40;99.90;;;;;;5013826;28;20388;-73
2022/04/01 06:58:19;;;;;;;;;;;2.40;99.90;;;;;;5017990;28;20377;-73
2022/04/01 07:00:46;;;;;;;;;;;2.50;99.90;;;;;;4997136;28;19925;-73
2022/04/01 07:03:13;;;;;;;;;;;2.40;99.90;;;;;;5018807;28;19937;-73
2022/04/01 07:05:40;;;;;;;;;;;2.40;99.90;;;;;;4999278;28;20348;-76
2022/04/01 07:08:06;;;;;;;;;;;2.40;99.90;;;;;;5019632;28;20381;-73
2022/04/01 07:10:33;;;;;;;;;;;2.30;99.90;;;;;;4997276;28;20596;-73
2022/04/01 07:12:59;;;;;;;;;;;2.40;99.90;;;;;;5000327;28;19925;-73
2022/04/01 07:15:26;;;;;;;;;;;2.40;99.90;;;;;;4998843;28;19929;-73
2022/04/01 07:17:52;;;;;;;;;;;2.40;99.90;;;;;;5002206;28;20290;-75
2022/04/01 07:20:20;;;;;;;;;;;2.30;99.90;;;;;;4999908;28;19925;-73
2022/04/01 07:22:46;;;;;;;;;;;2.30;99.90;;;;;;5015477;28;20368;-73
2022/04/01 07:25:13;;;;;;;;;;;2.20;99.90;;;;;;5000508;28;19940;-76
2022/04/01 07:27:39;;;;;;;;;;;2.20;99.90;;;;;;5001315;28;19932;-73
2022/04/01 07:30:08;;;;;;;;;;;2.20;99.90;;;;;;5013607;28;19925;-73
2022/04/01 07:32:34;;;;;;;;;;;2.10;99.90;;;;;;5002377;28;19991;-72
2022/04/01 07:35:01;;;;;;;;;;;2.10;99.90;;;;;;5016115;28;19932;-72
2022/04/01 07:37:28;;;;;;;;;;;1.80;99.90;;;;;;5019519;28;19925;-72
2022/04/01 07:39:56;;;;;;;;;;;1.90;99.90;;;;;;5016525;28;19929;-73
2022/04/01 07:42:23;;;;;;;;;;;1.80;99.90;;;;;;4999401;28;19925;-73
2022/04/01 07:44:50;;;;;;;;;;;1.80;99.90;;;;;;5011232;28;19941;-73
2022/04/01 07:47:18;;;;;;;;;;;1.80;99.90;;;;;;4997325;28;19937;-76
2022/04/01 07:49:45;;;;;;;;;;;1.60;99.90;;;;;;5017197;28;19952;-73
2022/04/01 07:52:11;;;;;;;;;;;1.50;99.90;;;;;;5014066;28;19925;-73
2022/04/01 07:54:38;;;;;;;;;;;1.60;99.90;;;;;;4991049;28;19952;-73
2022/04/01 07:57:04;;;;;;;;;;;1.50;99.90;;;;;;5021200;28;19933;-73
2022/04/01 07:59:31;;;;;;;;;;;1.50;99.90;;;;;;5016377;28;19935;-74
2022/04/01 08:01:57;;;;;;;;;;;1.60;99.90;;;;;;4995621;28;19929;-72
2022/04/01 08:04:25;;;;;;;;;;;1.60;99.90;;;;;;5011501;28;19934;-72
2022/04/01 08:06:52;;;;;;;;;;;1.50;99.90;;;;;;5006938;28;20368;-73
2022/04/01 08:09:18;;;;;;;;;;;1.60;99.90;;;;;;5014458;28;19937;-76
2022/04/01 08:11:45;;;;;;;;;;;1.60;99.90;;;;;;5020562;28;20383;-73
2022/04/01 08:14:12;;;;;;;;;;;1.60;99.90;;;;;;5000539;28;19932;-73
2022/04/01 08:16:38;;;;;;;;;;;1.60;99.90;;;;;;5021043;28;19925;-73
2022/04/01 08:19:05;;;;;;;;;;;1.60;99.90;;;;;;5000741;28;20289;-73
2022/04/01 08:21:32;;;;;;;;;;;1.60;99.90;;;;;;5025485;28;20403;-73
2022/04/01 08:23:58;;;;;;;;;;;1.60;99.90;;;;;;5011051;28;19929;-73
2022/04/01 08:26:25;;;;;;;;;;;1.50;99.90;;;;;;5024918;28;19935;-74
2022/04/01 08:28:51;;;;;;;;;;;1.60;99.90;;;;;;5016190;28;20039;-74
2022/04/01 08:31:18;;;;;;;;;;;1.50;99.90;;;;;;5011176;28;19929;-76
2022/04/01 08:33:45;;;;;;;;;;;1.50;99.90;;;;;;4998593;28;20040;-74
2022/04/01 08:36:12;;;;;;;;;;;1.50;99.90;;;;;;4998235;28;19931;-73
2022/04/01 08:38:40;;;;;;;;;;;1.50;99.90;;;;;;5022745;28;19978;-74
2022/04/01 08:41:06;;;;;;;;;;;1.60;99.90;;;;;;5002578;28;19979;-73
2022/04/01 08:43:33;;;;;;;;;;;1.60;99.90;;;;;;4999433;28;19936;-74
2022/04/01 08:46:00;;;;;;;;;;;1.70;99.90;;;;;;5023600;28;19936;-74
2022/04/01 08:48:27;;;;;;;;;;;1.70;99.90;;;;;;5021130;28;19936;-74
2022/04/01 08:50:54;;;;;;;;;;;1.70;99.90;;;;;;5016903;28;20015;-73
2022/04/01 08:53:20;;;;;;;;;;;1.70;99.90;;;;;;5023880;28;19929;-77
2022/04/01 08:55:48;;;;;;;;;;;1.70;99.90;;;;;;5022163;28;19929;-74
2022/04/01 08:58:16;;;;;;;;;;;1.70;99.90;;;;;;5009136;28;20000;-73
2022/04/01 09:00:43;;;;;;;;;;;1.70;99.90;;;;;;5025466;28;19925;-74
2022/04/01 09:03:10;;;;;;;;;;;1.90;99.90;;;;;;5022311;28;20469;-73
2022/04/01 09:05:37;;;;;;;;;;;1.90;99.90;;;;;;5021279;28;19929;-76
2022/04/01 09:08:03;;;;;;;;;;;2.00;99.90;;;;;;5004470;28;20020;-74
2022/04/01 09:10:30;;;;;;;;;;;2.00;99.90;;;;;;5022252;28;19929;-74
2022/04/01 09:12:56;;;;;;;;;;;2.10;99.90;;;;;;5027000;28;19929;-74
2022/04/01 09:15:23;;;;;;;;;;;2.00;99.90;;;;;;5008239;28;20324;-76
2022/04/01 09:17:49;;;;;;;;;;;2.00;99.90;;;;;;5033676;28;19968;-74
2022/04/01 09:20:16;;;;;;;;;;;2.00;99.90;;;;;;5028884;28;19925;-73
2022/04/01 09:22:42;;;;;;;;;;;2.00;99.90;;;;;;5019639;28;19925;-73
2022/04/01 09:25:09;;;;;;;;;;;2.10;99.90;;;;;;5011264;28;19933;-73
2022/04/01 09:27:35;;;;;;;;;;;2.10;99.90;;;;;;5042301;28;19925;-74
2022/04/01 09:30:02;;;;;;;;;;;2.20;99.90;;;;;;5018448;28;19979;-73
2022/04/01 09:32:29;;;;;;;;;;;2.10;99.90;;;;;;5020700;28;19944;-73
2022/04/01 09:34:55;;;;;;;;;;;2.10;99.90;;;;;;4999700;28;19952;-73
2022/04/01 09:37:22;;;;;;;;;;;2.10;99.90;;;;;;5005238;28;19933;-73
2022/04/01 09:39:48;;;;;;;;;;;2.10;99.90;;;;;;4998958;28;19933;-73
2022/04/01 09:42:15;;;;;;;;;;;2.20;99.90;;;;;;5002220;28;19953;-73
2022/04/01 09:44:43;;;;;;;;;;;2.20;99.90;;;;;;5014228;28;19925;-73
2022/04/01 09:47:10;;;;;;;;;;;2.30;99.90;;;;;;5028839;28;19936;-73
2022/04/01 09:49:39;;;;;;;;;;;2.20;99.90;;;;;;5019686;28;19933;-73
2022/04/01 09:52:06;;;;;;;;;;;2.20;99.90;;;;;;5031822;28;19972;-73
2022/04/01 09:54:32;;;;;;;;;;;2.30;99.90;;;;;;5020479;28;19925;-73
2022/04/01 09:56:59;;;;;;;;;;;2.30;99.90;;;;;;5026336;28;19925;-73
2022/04/01 09:59:31;;;;;;;;;;;2.20;99.90;;;;;;5025960;28;19929;-73
2022/04/01 10:01:58;;;;;;;;;;;2.20;99.90;;;;;;5023204;28;19925;-73
2022/04/01 10:04:24;;;;;;;;;;;2.30;99.90;;;;;;5027375;28;19925;-72
2022/04/01 10:06:51;;;;;;;;;;;2.30;99.90;;;;;;5028679;28;19957;-73
2022/04/01 10:09:17;;;;;;;;;;;2.40;99.90;;;;;;5032159;28;20296;-74
2022/04/01 10:11:44;;;;;;;;;;;2.60;99.90;;;;;;5015348;28;20377;-72
2022/04/01 10:14:10;;;;;;;;;;;2.50;99.90;;;;;;5031194;28;20316;-73
2022/04/01 10:16:37;;;;;;;;;;;2.50;99.90;;;;;;5020075;28;19976;-73
2022/04/01 10:19:03;;;;;;;;;;;2.60;99.90;;;;;;5034043;28;19933;-74
2022/04/01 10:21:30;;;;;;;;;;;2.70;99.90;;;;;;5023311;28;19926;-78
2022/04/01 10:23:57;;;;;;;;;;;2.90;99.90;;;;;;5021303;28;20457;-73
2022/04/01 10:26:23;;;;;;;;;;;2.60;99.90;;;;;;5010611;28;20381;-73
2022/04/01 10:28:52;;;;;;;;;;;2.70;99.90;;;;;;5020682;28;20416;-73
2022/04/01 10:31:20;;;;;;;;;;;2.70;99.90;;;;;;5001706;28;19932;-73
2022/04/01 10:33:47;;;;;;;;;;;2.70;99.90;;;;;;5002928;28;20314;-73
2022/04/01 10:36:14;;;;;;;;;;;2.70;99.90;;;;;;5000765;28;19963;-76
2022/04/01 10:38:40;;;;;;;;;;;2.80;99.90;;;;;;5017232;28;20226;-74
2022/04/01 10:41:07;;;;;;;;;;;2.80;99.90;;;;;;4998630;28;19929;-73
2022/04/01 10:43:34;;;;;;;;;;;2.70;99.90;;;;;;5014992;28;19968;-75
2022/04/01 10:46:00;;;;;;;;;;;2.70;99.90;;;;;;5001568;28;19930;-74
2022/04/01 10:53:55;;;;;;;;;;;3.00;99.90;;;;;;5016030;28;19929;-73
2022/04/01 10:56:22;;;;;;;;;;;2.90;99.90;;;;;;5016195;28;19925;-72
2022/04/01 10:58:49;;;;;;;;;;;2.90;99.90;;;;;;5017984;28;19933;-72
2022/04/01 11:01:15;;;;;;;;;;;3.00;99.90;;;;;;5016547;28;19929;-73
2022/04/01 11:03:42;;;;;;;;;;;2.90;99.90;;;;;;5016083;28;19933;-72
2022/04/01 11:06:08;;;;;;;;;;;2.90;99.90;;;;;;5031155;28;20010;-73
2022/04/01 11:08:35;;;;;;;;;;;2.90;99.90;;;;;;5015173;28;19930;-77
2022/04/01 11:11:01;;;;;;;;;;;3.00;99.90;;;;;;5022922;28;19932;-72
2022/04/01 11:13:28;;;;;;;;;;;3.00;99.90;;;;;;5018639;28;20292;-73
2022/04/01 11:15:55;;;;;;;;;;;3.00;99.90;;;;;;5013371;28;20130;-73
2022/04/01 11:18:22;;;;;;;;;;;3.30;99.90;;;;;;5000850;28;19925;-73
2022/04/01 11:20:49;;;;;;;;;;;3.40;99.90;;;;;;5008596;28;20423;-74
2022/04/01 11:23:15;;;;;;;;;;;3.30;99.90;;;;;;5026758;28;19929;-73
2022/04/01 11:25:44;;;;;;;;;;;3.20;99.90;;;;;;5022026;28;19933;-73
2022/04/01 11:28:11;;;;;;;;;;;3.10;99.90;;;;;;5025293;28;20284;-73
2022/04/01 11:30:37;;;;;;;;;;;3.20;99.90;;;;;;5017586;28;19929;-75
2022/04/01 11:33:04;;;;;;;;;;;3.30;99.90;;;;;;5029555;28;19925;-73
2022/04/01 11:35:31;;;;;;;;;;;3.30;99.90;;;;;;5015098;28;20344;-73
2022/04/01 11:37:58;;;;;;;;;;;3.50;99.90;;;;;;5024841;28;20558;-73
2022/04/01 11:40:25;;;;;;;;;;;3.40;99.90;;;;;;5026764;28;19929;-73
2022/04/01 11:42:52;;;;;;;;;;;3.20;99.90;;;;;;5023700;28;19973;-73
2022/04/01 11:45:18;;;;;;;;;;;2.90;99.90;;;;;;5029065;28;20404;-73
2022/04/01 11:47:45;;;;;;;;;;;2.90;99.90;;;;;;5025714;28;20373;-73
2022/04/01 11:50:11;;;;;;;;;;;3.00;99.90;;;;;;5016394;28;20399;-73
2022/04/01 11:52:38;;;;;;;;;;;3.00;99.90;;;;;;5024595;28;19937;-76
2022/04/01 11:55:05;;;;;;;;;;;3.00;99.90;;;;;;5029700;28;20390;-73
2022/04/01 11:57:31;;;;;;;;;;;3.10;99.90;;;;;;5017159;28;19929;-73
2022/04/01 11:59:58;;;;;;;;;;;3.00;99.90;;;;;;4998309;28;19925;-73
2022/04/01 12:02:25;;;;;;;;;;;3.10;99.90;;;;;;5027673;28;19929;-74
2022/04/01 12:04:51;;;;;;;;;;;3.10;99.90;;;;;;5018959;28;19931;-71
2022/04/01 12:10:04;;;;;;;;;;;3.30;99.90;;;;;;5025009;28;19932;-74
2022/04/01 12:12:30;;;;;;;;;;;3.30;99.90;;;;;;5018584;28;20399;-74
2022/04/01 12:14:57;;;;;;;;;;;3.40;99.90;;;;;;4997482;28;19956;-77
2022/04/01 12:17:24;;;;;;;;;;;3.50;99.90;;;;;;5001913;28;19929;-73
2022/04/01 12:19:51;;;;;;;;;;;3.60;99.90;;;;;;4994715;28;19931;-73
2022/04/01 12:22:18;;;;;;;;;;;3.60;99.90;;;;;;5025116;28;19925;-73
2022/04/01 12:24:44;;;;;;;;;;;3.70;99.90;;;;;;5007063;28;19996;-74
2022/04/01 12:27:11;;;;;;;;;;;3.90;99.90;;;;;;4940999;28;1821735;-74
2022/04/01 12:29:37;;;;;;;;;;;3.90;99.90;;;;;;5014988;28;19933;-73
2022/04/01 12:32:05;;;;;;;;;;;4.00;99.90;;;;;;5008885;28;19937;-74
2022/04/01 12:34:31;;;;;;;;;;;3.90;99.90;;;;;;5017211;28;20377;-74
2022/04/01 12:37:00;;;;;;;;;;;4.10;99.90;;;;;;5015762;28;20392;-73
2022/04/01 12:39:26;;;;;;;;;;;4.30;99.90;;;;;;5013760;28;19975;-74
2022/04/01 12:41:53;;;;;;;;;;;4.30;99.90;;;;;;5016423;28;19925;-73
2022/04/01 12:44:19;;;;;;;;;;;4.20;99.90;;;;;;5010442;28;20012;-74
2022/04/01 12:46:46;;;;;;;;;;;4.30;99.90;;;;;;5012897;28;20372;-73
2022/04/01 12:49:12;;;;;;;;;;;4.20;99.90;;;;;;5015283;28;19925;-73
2022/04/01 12:51:39;;;;;;;;;;;4.40;99.90;;;;;;5022554;28;19925;-73
2022/04/01 12:54:08;;;;;;;;;;;4.50;99.90;;;;;;5027407;28;19929;-73
2022/04/01 12:56:35;;;;;;;;;;;4.70;99.90;;;;;;5025217;28;19939;-72
2022/04/01 12:59:01;;;;;;;;;;;4.70;99.90;;;;;;5009547;28;19926;-74
2022/04/01 13:01:28;;;;;;;;;;;4.80;99.90;;;;;;4996560;28;19926;-74
2022/04/01 13:03:55;;;;;;;;;;;4.70;99.90;;;;;;5014804;28;19925;-74
2022/04/01 13:06:23;;;;;;;;;;;4.80;99.90;;;;;;5027287;28;19926;-73
2022/04/01 13:08:49;;;;;;;;;;;4.90;99.90;;;;;;5012221;28;19933;-74
2022/04/01 13:11:16;;;;;;;;;;;4.80;99.90;;;;;;5025190;28;19925;-73
2022/04/01 13:13:43;;;;;;;;;;;4.90;99.90;;;;;;5026493;28;19932;-74
2022/04/01 13:16:09;;;;;;;;;;;4.90;99.90;;;;;;5011703;28;19929;-74
2022/04/01 13:18:36;;;;;;;;;;;4.80;99.90;;;;;;5013190;28;19933;-73
2022/04/01 13:21:03;;;;;;;;;;;4.80;99.90;;;;;;5018606;28;19931;-74
2022/04/01 13:23:31;;;;;;;;;;;4.80;99.90;;;;;;5027057;28;19933;-74
2022/04/01 13:25:57;;;;;;;;;;;4.80;99.90;;;;;;5019938;28;19929;-77
2022/04/01 13:28:24;;;;;;;;;;;4.90;99.90;;;;;;5012944;28;20377;-73
2022/04/01 13:30:50;;;;;;;;;;;5.10;99.90;;;;;;5028611;28;20296;-76
2022/04/01 13:33:17;;;;;;;;;;;5.10;99.90;;;;;;5021136;28;20610;-73
2022/04/01 13:35:44;;;;;;;;;;;5.10;99.90;;;;;;5031834;28;20373;-74
2022/04/01 13:38:11;;;;;;;;;;;5.10;99.90;;;;;;5020493;28;19962;-73
2022/04/01 13:40:37;;;;;;;;;;;5.20;98.90;;;;;;5029398;28;19940;-74
2022/04/01 13:43:04;;;;;;;;;;;5.20;99.60;;;;;;5027083;28;19925;-74
2022/04/01 13:45:33;;;;;;;;;;;5.30;99.80;;;;;;5030065;28;19933;-73
2022/04/01 13:48:00;;;;;;;;;;;5.10;99.00;;;;;;5030243;28;20369;-74
2022/04/01 13:50:26;;;;;;;;;;;5.10;99.70;;;;;;5032728;28;19925;-74
2022/04/01 13:52:53;;;;;;;;;;;5.20;99.90;;;;;;5022119;28;19925;-74
2022/04/01 13:55:19;;;;;;;;;;;5.10;99.90;;;;;;5016571;28;19932;-74
2022/04/01 13:57:47;;;;;;;;;;;5.30;99.90;;;;;;5031018;28;19925;-74
2022/04/01 14:00:13;;;;;;;;;;;5.30;99.90;;;;;;5007821;28;19975;-75
2022/04/01 14:02:43;;;;;;;;;;;5.20;99.90;;;;;;5032987;28;19925;-74
2022/04/01 14:05:10;;;;;;;;;;;5.30;99.90;;;;;;5027665;28;19924;-74
2022/04/01 14:07:37;;;;;;;;;;;5.30;99.90;;;;;;5025526;28;20395;-74
2022/04/01 14:10:04;;;;;;;;;;;5.10;99.90;;;;;;5023786;28;19986;-75
2022/04/01 14:12:30;;;;;;;;;;;5.30;99.10;;;;;;5016975;28;19940;-79
2022/04/01 14:14:57;;;;;;;;;;;5.20;99.80;;;;;;5002677;28;19933;-75
2022/04/01 14:17:24;;;;;;;;;;;5.20;99.60;;;;;;5002467;28;19929;-74
2022/04/01 14:19:51;;;;;;;;;;;5.20;98.30;;;;;;5026776;28;20300;-79
2022/04/01 14:22:17;;;;;;;;;;;5.20;98.60;;;;;;5006399;28;19929;-75
2022/04/01 14:24:44;;;;;;;;;;;5.20;98.00;;;;;;5021408;28;19940;-74
2022/04/01 14:27:10;;;;;;;;;;;5.20;97.90;;;;;;5002034;28;19925;-76
2022/04/01 14:32:21;;;;;;;;;;;5.00;97.80;;;;;;5018075;28;20362;-75
2022/04/01 14:34:48;;;;;;;;;;;5.00;97.30;;;;;;5016364;28;19935;-75
2022/04/01 14:37:15;;;;;;;;;;;5.00;97.60;;;;;;5005591;28;20536;-76
2022/04/01 14:39:41;;;;;;;;;;;5.00;97.70;;;;;;5006608;28;19980;-77
2022/04/01 14:42:08;;;;;;;;;;;5.00;98.10;;;;;;5017979;28;19952;-76